Forside
METAR-TAF:

METAR-TAF

Lufthavne :

Derby, Australien

Breddekreds: 17-34-53S, længdekreds: 123-49-42E, højde: 91 m

Aktuelle vejr

Denne rapport blev lavet for 36 minutter siden, kl. 23:30 UTC
Vind 9 kt fra sydsydvest
Temperatur 26°C
Fugtighed 70%
Tryk 1012 hPa
Sigt 10 km eller mere

METAR: YCIN 192330Z AUTO 21009KT 9999 // NCD 26/20 Q1012 RF00.0/000.0

Tid: 08:06 (00:06 UTC)

Vejrudsigter

Denne rapport blev lavet for 3 timer og 39 minutter siden, kl. 20:27 UTC
Foreløbig gælder fra 19 på 20 UTC til 20 på 08 UTC
Vind 8 kt fra vestnordvest
Sigt 10 km eller mere
ingen skyer under 1500m og ingen cumulonimbus

TAF: YCIN 192027Z 1920/2008 29008KT CAVOK

Vejrobservationer og prognoser fra mere end 4000 lufthavne (METAR og TAF).

De gule og røde prikker repræsenterer de meteorologiske stationer.

Flyt musen over at se navnet på stationen.

Så klik over at se vejr observationer og prognoser.

At skifte det kort: Klik på de grønne knapper med et sort kors for at zoome ind; på den grønne knap med en bindestreg for at zoome ud; eller på de grønne pile for tilstødende kort.


METAR-TAF: